createdAt,value
2022-10-19T00:01:47.865Z,98.30
2022-10-19T00:02:47.801Z,99.02
2022-10-19T00:04:40.710Z,98.14
2022-10-19T00:05:40.739Z,98.10
2022-10-19T00:07:44.680Z,99.57
2022-10-19T00:08:44.665Z,99.63
2022-10-19T00:10:48.644Z,99.43
2022-10-19T00:11:48.634Z,99.73
2022-10-19T00:13:52.635Z,99.78
2022-10-19T00:14:52.624Z,99.47
2022-10-19T00:16:45.545Z,99.78
2022-10-19T00:17:45.542Z,99.68
2022-10-19T00:19:49.539Z,99.78
2022-10-19T00:20:49.528Z,99.57
2022-10-19T00:22:53.521Z,99.88
2022-10-19T00:23:53.506Z,99.57
2022-10-19T00:25:57.499Z,99.73
2022-10-19T00:26:57.486Z,99.68
2022-10-19T00:29:01.707Z,99.84
2022-10-19T00:30:01.681Z,99.73
2022-10-19T00:32:05.746Z,99.63
2022-10-19T00:33:05.670Z,99.63
2022-10-19T00:34:05.657Z,99.52
2022-10-19T00:35:05.654Z,99.22
2022-10-19T00:36:05.643Z,99.63
2022-10-19T00:37:05.637Z,99.57
2022-10-19T00:38:05.626Z,99.78
2022-10-19T00:39:05.622Z,99.52
2022-10-19T00:40:05.614Z,99.06
2022-10-19T00:41:05.607Z,98.35
2022-10-19T00:42:05.612Z,98.45
2022-10-19T00:43:05.588Z,97.99
2022-10-19T00:44:05.589Z,98.14
2022-10-19T00:45:05.577Z,98.04
2022-10-19T00:46:05.574Z,97.63
2022-10-19T00:47:05.564Z,97.83
2022-10-19T00:48:05.556Z,96.77
2022-10-19T00:49:08.374Z,96.26
2022-10-19T00:50:05.543Z,95.85
2022-10-19T00:51:05.536Z,95.23
2022-10-19T00:52:05.530Z,95.64
2022-10-19T00:53:05.519Z,95.44
2022-10-19T00:54:05.514Z,94.62
2022-10-19T00:55:05.514Z,93.91
2022-10-19T00:56:05.513Z,94.01
2022-10-19T00:57:05.493Z,94.52
2022-10-19T00:58:05.503Z,94.73
2022-10-19T00:59:05.494Z,94.42
2022-10-19T01:00:05.477Z,94.73
2022-10-19T01:01:05.507Z,94.73
2022-10-19T01:02:05.466Z,94.73
2022-10-19T01:03:05.449Z,94.73
2022-10-19T01:04:05.439Z,94.11
2022-10-19T01:05:05.431Z,95.03
2022-10-19T01:06:05.426Z,94.62
2022-10-19T01:07:05.418Z,95.23
2022-10-19T01:08:05.411Z,95.23
2022-10-19T01:09:05.408Z,95.44
2022-10-19T01:10:05.413Z,96.56
2022-10-19T01:11:05.387Z,96.36
2022-10-19T01:12:05.379Z,95.95
2022-10-19T01:13:05.375Z,95.44
2022-10-19T01:14:05.367Z,96.26
2022-10-19T01:15:05.360Z,95.13
2022-10-19T01:16:05.353Z,94.52
2022-10-19T01:17:05.345Z,94.42
2022-10-19T01:18:05.338Z,95.13
2022-10-19T01:19:05.331Z,95.03
2022-10-19T01:20:05.340Z,94.42
2022-10-19T01:21:05.316Z,93.91
2022-10-19T01:22:05.308Z,94.11
2022-10-19T01:23:05.303Z,94.32
2022-10-19T01:24:05.294Z,94.01
2022-10-19T01:25:05.288Z,93.91
2022-10-19T01:26:05.277Z,93.60
2022-10-19T01:27:05.273Z,93.29
2022-10-19T01:28:05.266Z,93.40
2022-10-19T01:29:05.310Z,93.80
2022-10-19T01:30:05.251Z,93.60
2022-10-19T01:31:05.243Z,93.19
2022-10-19T01:32:05.235Z,92.78
2022-10-19T01:33:05.229Z,92.07
2022-10-19T01:34:05.221Z,92.27
2022-10-19T01:35:05.217Z,91.56
2022-10-19T01:36:05.207Z,91.15
2022-10-19T01:37:05.199Z,91.96
2022-10-19T01:38:05.197Z,91.86
2022-10-19T01:39:05.185Z,91.96
2022-10-19T01:40:05.177Z,92.68
2022-10-19T01:41:05.174Z,91.56
2022-10-19T01:42:05.166Z,91.76
2022-10-19T01:43:05.156Z,91.46
2022-10-19T01:44:05.147Z,91.15
2022-10-19T01:45:05.141Z,90.74
2022-10-19T01:46:05.133Z,90.94
2022-10-19T01:47:05.128Z,90.02
2022-10-19T01:48:05.118Z,89.92
2022-10-19T01:49:05.112Z,90.12
2022-10-19T01:50:05.106Z,90.74
2022-10-19T01:51:05.100Z,91.31
2022-10-19T01:52:05.089Z,90.80
2022-10-19T01:53:05.081Z,90.84
2022-10-19T01:54:05.074Z,91.15
2022-10-19T01:55:05.068Z,90.90
2022-10-19T01:56:05.061Z,91.61
2022-10-19T01:57:05.054Z,91.56
2022-10-19T01:58:08.305Z,91.82
2022-10-19T01:59:05.038Z,91.61
2022-10-19T02:00:05.031Z,92.37
2022-10-19T02:01:05.168Z,92.74
2022-10-19T02:02:05.017Z,92.68
2022-10-19T02:03:05.010Z,92.74
2022-10-19T02:04:05.003Z,92.88
2022-10-19T02:05:05.022Z,93.80
2022-10-19T02:06:04.989Z,93.45
2022-10-19T02:07:04.981Z,93.80
2022-10-19T02:08:04.973Z,94.01
2022-10-19T02:09:04.963Z,93.09
2022-10-19T02:10:05.023Z,92.58
2022-10-19T02:11:04.954Z,93.91
2022-10-19T02:12:04.941Z,94.11
2022-10-19T02:13:04.938Z,94.01
2022-10-19T02:14:04.931Z,94.32
2022-10-19T02:15:05.019Z,94.11
2022-10-19T02:16:04.913Z,92.99
2022-10-19T02:17:04.907Z,92.99
2022-10-19T02:18:04.901Z,93.70
2022-10-19T02:19:04.893Z,93.50
2022-10-19T02:20:04.885Z,92.88
2022-10-19T02:21:04.876Z,92.42
2022-10-19T02:22:04.870Z,92.58
2022-10-19T02:23:04.864Z,93.09
2022-10-19T02:24:04.855Z,93.29
2022-10-19T02:25:04.933Z,92.78
2022-10-19T02:26:04.841Z,92.99
2022-10-19T02:27:04.837Z,93.09
2022-10-19T02:28:04.826Z,93.09
2022-10-19T02:29:04.819Z,92.27
2022-10-19T02:30:04.812Z,93.19
2022-10-19T02:31:04.805Z,92.99
2022-10-19T02:32:04.798Z,93.40
2022-10-19T02:33:04.791Z,93.09
2022-10-19T02:34:04.781Z,93.60
2022-10-19T02:35:04.803Z,92.99
2022-10-19T02:36:04.769Z,93.19
2022-10-19T02:37:04.760Z,93.24
2022-10-19T02:38:04.753Z,93.29
2022-10-19T02:39:04.746Z,93.19
2022-10-19T02:40:04.738Z,93.19
2022-10-19T02:41:04.730Z,93.40
2022-10-19T02:42:04.728Z,93.91
2022-10-19T02:43:04.716Z,93.70
2022-10-19T02:44:04.707Z,94.11
2022-10-19T02:45:04.724Z,94.32
2022-10-19T02:46:04.693Z,93.91
2022-10-19T02:47:04.686Z,93.91
2022-10-19T02:48:04.679Z,94.11
2022-10-19T02:49:04.671Z,94.01
2022-10-19T02:50:04.663Z,93.91
2022-10-19T02:51:04.658Z,93.29
2022-10-19T02:52:04.655Z,93.24
2022-10-19T02:53:04.642Z,93.29
2022-10-19T02:54:05.374Z,93.03
2022-10-19T02:55:04.626Z,92.99
2022-10-19T02:56:04.618Z,93.19
2022-10-19T02:57:04.612Z,92.58
2022-10-19T02:58:04.607Z,92.58
2022-10-19T02:59:04.597Z,92.88
2022-10-19T03:00:04.589Z,92.99
2022-10-19T03:01:04.627Z,92.88
2022-10-19T03:02:04.574Z,93.09
2022-10-19T03:03:04.567Z,92.47
2022-10-19T03:04:04.558Z,92.78
2022-10-19T03:05:04.554Z,92.07
2022-10-19T03:06:04.544Z,92.78
2022-10-19T03:07:04.537Z,92.99
2022-10-19T03:08:04.533Z,93.13
2022-10-19T03:09:04.523Z,92.93
2022-10-19T03:10:04.514Z,92.93
2022-10-19T03:11:04.506Z,92.58
2022-10-19T03:12:04.500Z,92.47
2022-10-19T03:13:04.493Z,92.78
2022-10-19T03:14:04.486Z,92.47
2022-10-19T03:15:04.532Z,92.27
2022-10-19T03:16:04.467Z,91.86
2022-10-19T03:17:04.461Z,92.17
2022-10-19T03:18:04.453Z,91.66
2022-10-19T03:19:04.447Z,91.96
2022-10-19T03:20:04.438Z,91.56
2022-10-19T03:21:04.432Z,91.60
2022-10-19T03:22:04.422Z,92.07
2022-10-19T03:23:04.418Z,92.17
2022-10-19T03:24:04.408Z,92.27
2022-10-19T03:25:04.408Z,92.17
2022-10-19T03:26:05.681Z,92.27
2022-10-19T03:27:04.386Z,92.07
2022-10-19T03:28:04.377Z,91.35
2022-10-19T03:29:04.422Z,91.25
2022-10-19T03:30:04.364Z,92.17
2022-10-19T03:31:04.355Z,91.35
2022-10-19T03:32:04.347Z,90.43
2022-10-19T03:33:04.339Z,90.23
2022-10-19T03:34:04.332Z,90.43
2022-10-19T03:35:04.326Z,90.68
2022-10-19T03:36:04.315Z,90.53
2022-10-19T03:37:04.308Z,90.74
2022-10-19T03:38:04.300Z,90.43
2022-10-19T03:39:04.295Z,89.92
2022-10-19T03:40:04.286Z,90.12
2022-10-19T03:41:04.279Z,89.92
2022-10-19T03:42:04.269Z,89.35
2022-10-19T03:43:04.262Z,89.51
2022-10-19T03:44:04.261Z,89.56
2022-10-19T03:45:04.247Z,90.02
2022-10-19T03:46:04.240Z,89.82
2022-10-19T03:47:04.233Z,90.02
2022-10-19T03:48:04.224Z,89.92
2022-10-19T03:49:04.217Z,90.02
2022-10-19T03:50:04.208Z,90.33
2022-10-19T03:51:04.200Z,90.43
2022-10-19T03:52:04.195Z,90.12
2022-10-19T03:53:04.200Z,90.23
2022-10-19T03:54:04.181Z,90.53
2022-10-19T03:55:04.180Z,90.84
2022-10-19T03:56:04.162Z,90.84
2022-10-19T03:57:04.155Z,91.05
2022-10-19T03:58:04.146Z,91.15
2022-10-19T03:59:04.141Z,91.66
2022-10-19T04:00:04.134Z,91.66
2022-10-19T04:01:04.200Z,90.99
2022-10-19T04:02:04.119Z,91.29
2022-10-19T04:03:04.109Z,91.56
2022-10-19T04:04:04.099Z,91.66
2022-10-19T04:05:04.094Z,91.80
2022-10-19T04:06:04.087Z,92.07
2022-10-19T04:07:04.080Z,91.91
2022-10-19T04:08:04.070Z,92.21
2022-10-19T04:09:04.063Z,92.37
2022-10-19T04:10:04.059Z,92.47
2022-10-19T04:11:04.048Z,93.03
2022-10-19T04:12:04.042Z,92.78
2022-10-19T04:13:04.036Z,93.44
2022-10-19T04:14:04.053Z,93.44
2022-10-19T04:15:04.018Z,94.06
2022-10-19T04:16:04.008Z,93.65
2022-10-19T04:17:04.004Z,93.74
2022-10-19T04:18:03.995Z,94.15
2022-10-19T04:19:03.987Z,94.06
2022-10-19T04:20:03.978Z,94.56
2022-10-19T04:21:03.969Z,93.95
2022-10-19T04:22:03.965Z,93.65
2022-10-19T04:23:04.018Z,94.06
2022-10-19T04:24:03.950Z,94.06
2022-10-19T04:25:03.942Z,94.15
2022-10-19T04:26:03.935Z,93.95
2022-10-19T04:27:03.929Z,94.56
2022-10-19T04:28:03.921Z,94.56
2022-10-19T04:29:04.008Z,94.26
2022-10-19T04:30:03.910Z,93.74
2022-10-19T04:31:03.928Z,93.44
2022-10-19T04:32:03.889Z,93.44
2022-10-19T04:33:03.883Z,93.13
2022-10-19T04:34:03.875Z,92.62
2022-10-19T04:35:03.869Z,93.33
2022-10-19T04:36:03.859Z,92.93
2022-10-19T04:37:03.852Z,93.13
2022-10-19T04:38:03.845Z,93.13
2022-10-19T04:39:03.838Z,92.72
2022-10-19T04:40:03.831Z,92.83
2022-10-19T04:41:03.823Z,92.93
2022-10-19T04:42:03.815Z,92.93
2022-10-19T04:43:03.808Z,92.32
2022-10-19T04:44:03.804Z,92.72
2022-10-19T04:45:03.793Z,93.24
2022-10-19T04:46:03.790Z,93.13
2022-10-19T04:47:03.781Z,92.42
2022-10-19T04:48:03.770Z,92.83
2022-10-19T04:49:03.763Z,91.91
2022-10-19T04:50:03.757Z,91.91
2022-10-19T04:51:03.750Z,92.52
2022-10-19T04:52:03.744Z,92.93
2022-10-19T04:53:03.732Z,92.52
2022-10-19T04:54:03.726Z,92.72
2022-10-19T04:55:03.719Z,92.21
2022-10-19T04:56:03.710Z,91.80
2022-10-19T04:57:03.704Z,92.32
2022-10-19T04:58:03.697Z,92.11
2022-10-19T04:59:03.689Z,92.42
2022-10-19T05:00:03.681Z,92.42
2022-10-19T05:01:03.702Z,92.42
2022-10-19T05:02:03.666Z,92.83
2022-10-19T05:03:03.659Z,92.11
2022-10-19T05:04:03.654Z,91.80
2022-10-19T05:05:03.644Z,91.91
2022-10-19T05:06:03.705Z,92.11
2022-10-19T05:07:12.290Z,91.80
2022-10-19T05:09:07.612Z,91.19
2022-10-19T05:10:07.595Z,91.19
2022-10-19T05:12:11.592Z,91.09
2022-10-19T05:13:11.571Z,91.09
2022-10-19T05:15:15.556Z,91.39
2022-10-19T05:16:15.548Z,91.50
2022-10-19T05:18:19.553Z,92.83
2022-10-19T05:19:19.520Z,93.07
2022-10-19T05:21:13.120Z,93.79
2022-10-19T05:22:13.098Z,94.20
2022-10-19T05:23:13.092Z,94.40
2022-10-19T05:24:13.083Z,94.40
2022-10-19T05:25:13.079Z,94.60
2022-10-19T05:26:13.067Z,94.60
2022-10-19T05:27:13.060Z,94.60
2022-10-19T05:28:13.052Z,94.60
2022-10-19T05:29:13.046Z,94.96
2022-10-19T05:30:13.035Z,95.26
2022-10-19T05:31:13.029Z,95.37
2022-10-19T05:32:13.020Z,95.37
2022-10-19T05:33:13.014Z,95.17
2022-10-19T05:34:13.003Z,96.08
2022-10-19T05:35:12.998Z,96.08
2022-10-19T05:36:12.989Z,95.72
2022-10-19T05:37:12.983Z,95.88
2022-10-19T05:38:12.976Z,95.78
2022-10-19T05:39:13.148Z,95.82
2022-10-19T05:40:12.964Z,96.49
2022-10-19T05:41:12.952Z,96.19
2022-10-19T05:42:12.942Z,96.29
2022-10-19T05:43:12.936Z,96.08
2022-10-19T05:44:12.929Z,96.03
2022-10-19T05:45:12.921Z,96.33
2022-10-19T05:46:12.909Z,96.03
2022-10-19T05:47:12.908Z,96.19
2022-10-19T05:48:12.897Z,95.98
2022-10-19T05:49:12.889Z,96.08
2022-10-19T05:50:12.882Z,95.88
2022-10-19T05:51:12.873Z,95.57
2022-10-19T05:52:12.863Z,95.88
2022-10-19T05:53:12.881Z,95.78
2022-10-19T05:54:12.851Z,95.88
2022-10-19T05:55:12.842Z,95.78
2022-10-19T05:56:12.838Z,95.98
2022-10-19T05:57:12.827Z,95.98
2022-10-19T05:58:12.817Z,95.67
2022-10-19T05:59:12.815Z,96.59
2022-10-19T06:00:12.802Z,95.78
2022-10-19T06:01:12.799Z,95.47
2022-10-19T06:02:12.833Z,95.32
2022-10-19T06:03:12.778Z,95.06
2022-10-19T06:04:12.797Z,94.65
2022-10-19T06:05:12.763Z,94.20
2022-10-19T06:06:12.755Z,94.51
2022-10-19T06:07:12.751Z,94.20
2022-10-19T06:08:12.740Z,94.14
2022-10-19T06:09:12.732Z,94.20
2022-10-19T06:10:12.723Z,93.99
2022-10-19T06:11:12.716Z,94.60
2022-10-19T06:12:13.096Z,94.10
2022-10-19T06:13:12.699Z,94.20
2022-10-19T06:14:12.692Z,94.20
2022-10-19T06:15:12.684Z,94.40
2022-10-19T06:16:12.677Z,94.40
2022-10-19T06:17:12.666Z,93.89
2022-10-19T06:18:12.663Z,94.30
2022-10-19T06:19:12.654Z,93.99
2022-10-19T06:20:12.646Z,94.10
2022-10-19T06:21:12.637Z,94.30
2022-10-19T06:22:12.630Z,94.10
2022-10-19T06:23:12.622Z,94.15
2022-10-19T06:24:12.610Z,93.99
2022-10-19T06:25:15.503Z,93.95
2022-10-19T06:26:12.600Z,94.10
2022-10-19T06:27:12.646Z,94.36
2022-10-19T06:28:12.582Z,94.06
2022-10-19T06:29:12.575Z,94.06
2022-10-19T06:30:12.566Z,94.15
2022-10-19T06:31:12.559Z,94.06
2022-10-19T06:32:12.553Z,94.46
2022-10-19T06:33:12.543Z,94.06
2022-10-19T06:34:12.579Z,93.95
2022-10-19T06:35:12.529Z,94.06
2022-10-19T06:36:12.522Z,93.54
2022-10-19T06:37:12.539Z,93.95
2022-10-19T06:38:12.505Z,94.52
2022-10-19T06:39:12.499Z,94.62
2022-10-19T06:40:12.522Z,94.82
2022-10-19T06:41:12.483Z,94.42
2022-10-19T06:42:12.475Z,94.52
2022-10-19T06:43:12.471Z,94.42
2022-10-19T06:44:12.463Z,93.80
2022-10-19T06:45:12.452Z,94.52
2022-10-19T06:46:12.447Z,94.82
2022-10-19T06:47:12.469Z,94.93
2022-10-19T06:48:12.431Z,94.73
2022-10-19T06:49:12.433Z,94.37
2022-10-19T06:50:12.413Z,94.01
2022-10-19T06:51:12.407Z,94.21
2022-10-19T06:52:12.399Z,94.58
2022-10-19T06:53:12.391Z,93.45
2022-10-19T06:54:12.385Z,93.55
2022-10-19T06:55:12.378Z,93.96
2022-10-19T06:56:12.375Z,93.96
2022-10-19T06:57:12.401Z,93.66
2022-10-19T06:58:12.354Z,93.86
2022-10-19T06:59:12.346Z,93.86
2022-10-19T07:00:12.339Z,93.96
2022-10-19T07:01:12.417Z,94.68
2022-10-19T07:02:12.321Z,94.17
2022-10-19T07:03:12.316Z,93.86
2022-10-19T07:04:12.309Z,93.66
2022-10-19T07:05:12.300Z,93.25
2022-10-19T07:06:12.293Z,92.84
2022-10-19T07:07:12.340Z,92.84
2022-10-19T07:08:12.303Z,93.15
2022-10-19T07:09:12.271Z,91.98
2022-10-19T07:10:12.264Z,91.88
2022-10-19T07:11:12.256Z,92.39
2022-10-19T07:12:12.249Z,92.59
2022-10-19T07:13:12.252Z,92.19
2022-10-19T07:14:12.290Z,91.98
2022-10-19T07:15:12.230Z,92.19
2022-10-19T07:16:16.073Z,91.83
2022-10-19T07:17:12.276Z,91.83
2022-10-19T07:18:12.206Z,92.35
2022-10-19T07:19:12.236Z,92.14
2022-10-19T07:20:12.190Z,91.22
2022-10-19T07:21:12.182Z,91.08
2022-10-19T07:22:15.785Z,90.57
2022-10-19T07:23:12.168Z,90.10
2022-10-19T07:24:12.163Z,90.06
2022-10-19T07:25:12.152Z,90.51
2022-10-19T07:26:12.148Z,90.20
2022-10-19T07:27:12.140Z,91.02
2022-10-19T07:28:12.134Z,90.41
2022-10-19T07:29:12.126Z,90.31
2022-10-19T07:30:12.115Z,90.61
2022-10-19T07:31:12.110Z,90.55
2022-10-19T07:32:12.103Z,90.71
2022-10-19T07:33:12.161Z,90.71
2022-10-19T07:34:12.114Z,90.67
2022-10-19T07:35:12.081Z,90.06
2022-10-19T07:36:12.073Z,89.86
2022-10-19T07:37:12.066Z,89.04
2022-10-19T07:38:12.061Z,89.34
2022-10-19T07:39:12.055Z,89.96
2022-10-19T07:40:12.045Z,89.55
2022-10-19T07:41:12.037Z,89.10
2022-10-19T07:42:12.115Z,88.79
2022-10-19T07:43:12.023Z,88.73
2022-10-19T07:44:14.838Z,88.63
2022-10-19T07:45:12.008Z,88.28
2022-10-19T07:46:12.005Z,88.90
2022-10-19T07:47:11.995Z,89.14
2022-10-19T07:48:11.993Z,88.12
2022-10-19T07:49:11.982Z,88.53
2022-10-19T07:50:11.979Z,88.63
2022-10-19T07:51:11.964Z,88.32
2022-10-19T07:52:11.960Z,89.34
2022-10-19T07:53:11.952Z,89.75
2022-10-19T07:54:11.945Z,89.34
2022-10-19T07:55:11.936Z,88.73
2022-10-19T07:56:11.933Z,89.28
2022-10-19T07:57:11.923Z,89.75
2022-10-19T07:58:11.918Z,90.10
2022-10-19T07:59:11.911Z,89.90
2022-10-19T08:00:11.903Z,90.00
2022-10-19T08:01:11.898Z,90.31
2022-10-19T08:02:11.957Z,90.06
2022-10-19T08:03:43.789Z,89.86
2022-10-19T08:05:12.339Z,89.34
2022-10-19T08:06:11.858Z,89.86
2022-10-19T08:07:11.853Z,89.65
2022-10-19T08:08:11.847Z,89.25
2022-10-19T08:09:27.761Z,89.45
2022-10-19T08:10:11.831Z,88.69
2022-10-19T08:11:11.825Z,87.47
2022-10-19T08:12:15.242Z,87.67
2022-10-19T08:13:11.810Z,87.23
2022-10-19T08:14:11.801Z,87.43
2022-10-19T08:15:11.798Z,87.06
2022-10-19T08:16:11.788Z,87.16
2022-10-19T08:17:11.789Z,88.18
2022-10-19T08:18:11.773Z,87.23
2022-10-19T08:19:11.769Z,86.82
2022-10-19T08:20:11.762Z,86.96
2022-10-19T08:21:11.754Z,86.61
2022-10-19T08:22:11.745Z,86.65
2022-10-19T08:23:11.740Z,85.43
2022-10-19T08:24:11.733Z,85.28
2022-10-19T08:25:11.725Z,86.04
2022-10-19T08:26:11.723Z,86.24
2022-10-19T08:27:11.712Z,85.53
2022-10-19T08:28:11.705Z,86.65
2022-10-19T08:29:11.695Z,87.02
2022-10-19T08:30:11.690Z,85.49
2022-10-19T08:31:11.683Z,84.78
2022-10-19T08:32:11.675Z,85.39
2022-10-19T08:33:11.670Z,85.49
2022-10-19T08:34:11.685Z,86.71
2022-10-19T08:35:11.655Z,85.28
2022-10-19T08:36:11.650Z,85.35
2022-10-19T08:37:26.060Z,85.05
2022-10-19T08:38:11.635Z,84.58
2022-10-19T08:39:11.627Z,85.35
2022-10-19T08:40:11.620Z,85.35
2022-10-19T08:41:11.614Z,84.47
2022-10-19T08:42:11.609Z,85.49
2022-10-19T08:43:11.599Z,85.28
2022-10-19T08:44:11.592Z,85.75
2022-10-19T08:45:11.586Z,84.53
2022-10-19T08:46:11.578Z,85.00
2022-10-19T08:47:12.539Z,84.70
2022-10-19T08:48:11.564Z,82.76
2022-10-19T08:49:11.562Z,83.37
2022-10-19T08:50:11.555Z,83.58
2022-10-19T08:51:11.544Z,83.44
2022-10-19T08:52:11.545Z,83.34
2022-10-19T08:53:11.531Z,83.13
2022-10-19T08:54:11.526Z,83.34
2022-10-19T08:55:13.986Z,81.40
2022-10-19T08:56:14.976Z,82.21
2022-10-19T08:57:11.503Z,82.05
2022-10-19T08:58:11.503Z,82.82
2022-10-19T08:59:11.494Z,81.81
2022-10-19T09:00:11.486Z,82.21
2022-10-19T09:01:11.491Z,82.12
2022-10-19T09:02:11.473Z,82.73
2022-10-19T09:03:11.465Z,82.15
2022-10-19T09:04:11.471Z,82.73
2022-10-19T09:05:11.499Z,82.62
2022-10-19T09:06:11.457Z,81.91
2022-10-19T09:07:11.459Z,82.01
2022-10-19T09:08:16.726Z,82.21
2022-10-19T09:09:11.427Z,81.91
2022-10-19T09:10:11.417Z,81.40
2022-10-19T09:11:11.421Z,82.32
2022-10-19T09:12:11.407Z,82.21
2022-10-19T09:13:11.405Z,82.28
2022-10-19T09:14:11.397Z,82.28
2022-10-19T09:15:11.386Z,82.24
2022-10-19T09:16:11.379Z,81.23
2022-10-19T09:17:11.372Z,80.82
2022-10-19T09:18:11.374Z,80.51
2022-10-19T09:19:11.364Z,81.43
2022-10-19T09:20:11.354Z,80.21
2022-10-19T09:21:11.351Z,79.39
2022-10-19T09:22:11.338Z,79.60
2022-10-19T09:23:13.454Z,79.63
2022-10-19T09:24:11.327Z,79.74
2022-10-19T09:25:11.321Z,78.31
2022-10-19T09:26:11.315Z,79.74
2022-10-19T09:27:11.309Z,79.94
2022-10-19T09:28:11.301Z,80.31
2022-10-19T09:29:11.296Z,80.11
2022-10-19T09:30:11.286Z,79.60
2022-10-19T09:31:11.285Z,79.80
2022-10-19T09:32:11.279Z,79.60
2022-10-19T09:33:15.269Z,79.56
2022-10-19T09:34:11.262Z,78.14
2022-10-19T09:35:11.259Z,75.84
2022-10-19T09:36:22.239Z,76.25
2022-10-19T09:37:16.776Z,76.95
2022-10-19T09:38:11.240Z,77.20
2022-10-19T09:39:11.234Z,77.20
2022-10-19T09:40:11.227Z,76.68
2022-10-19T09:41:11.221Z,76.48
2022-10-19T09:42:11.215Z,78.28
2022-10-19T09:43:11.211Z,76.75
2022-10-19T09:44:11.204Z,77.26
2022-10-19T09:45:11.198Z,76.86
2022-10-19T09:46:19.453Z,76.86
2022-10-19T09:47:13.659Z,76.65
2022-10-19T09:48:13.206Z,78.01
2022-10-19T09:49:11.170Z,76.45
2022-10-19T09:50:11.163Z,78.17
2022-10-19T09:51:11.158Z,78.11
2022-10-19T09:52:11.155Z,77.47
2022-10-19T09:53:11.149Z,77.77
2022-10-19T09:54:11.140Z,77.87
2022-10-19T09:55:11.131Z,78.08
2022-10-19T09:56:11.127Z,77.77
2022-10-19T09:57:11.122Z,77.87
2022-10-19T09:58:11.112Z,77.16
2022-10-19T09:59:11.109Z,75.87
2022-10-19T10:00:11.103Z,75.16
2022-10-19T10:01:11.096Z,75.16
2022-10-19T10:02:11.096Z,73.36
2022-10-19T10:03:11.084Z,73.47
2022-10-19T10:04:11.076Z,74.72
2022-10-19T10:05:11.071Z,74.62
2022-10-19T10:06:11.065Z,74.62
2022-10-19T10:07:11.060Z,74.41
2022-10-19T10:08:11.049Z,75.02
2022-10-19T10:09:11.059Z,74.25
2022-10-19T10:10:11.038Z,74.52
2022-10-19T10:11:11.033Z,74.82
2022-10-19T10:12:11.029Z,72.17
2022-10-19T10:13:11.017Z,72.08
2022-10-19T10:14:11.014Z,69.63
2022-10-19T10:15:11.007Z,71.47
2022-10-19T10:16:10.998Z,70.51
2022-10-19T10:17:10.992Z,68.79
2022-10-19T10:18:10.991Z,68.24
2022-10-19T10:19:10.981Z,70.07
2022-10-19T10:20:10.977Z,69.36
2022-10-19T10:21:10.965Z,68.82
2022-10-19T10:22:10.961Z,66.89
2022-10-19T10:23:10.953Z,67.13
2022-10-19T10:24:10.947Z,64.58
2022-10-19T10:25:10.986Z,64.99
2022-10-19T10:26:10.932Z,64.25
2022-10-19T10:27:10.925Z,64.51
2022-10-19T10:28:10.937Z,65.02
2022-10-19T10:29:10.914Z,66.65
2022-10-19T10:30:10.913Z,66.65
2022-10-19T10:31:10.901Z,66.55
2022-10-19T10:32:10.896Z,66.31
2022-10-19T10:33:21.234Z,66.61
2022-10-19T10:34:22.723Z,65.09
2022-10-19T10:35:10.881Z,64.86
2022-10-19T10:36:10.870Z,61.81
2022-10-19T10:37:10.865Z,61.91
2022-10-19T10:38:10.858Z,62.11
2022-10-19T10:39:10.849Z,62.79
2022-10-19T10:40:10.845Z,63.17
2022-10-19T10:41:10.837Z,61.75
2022-10-19T10:42:10.831Z,62.84
2022-10-19T10:43:10.825Z,62.84
2022-10-19T10:44:10.836Z,59.99
2022-10-19T10:45:10.817Z,62.43
2022-10-19T10:46:10.805Z,62.43
2022-10-19T10:47:10.801Z,61.65
2022-10-19T10:48:10.800Z,62.84
2022-10-19T10:49:10.788Z,63.04
2022-10-19T10:50:10.784Z,61.34
2022-10-19T10:51:10.776Z,62.97
2022-10-19T10:52:10.775Z,63.00
2022-10-19T10:53:10.763Z,63.30
2022-10-19T10:54:10.759Z,65.03
2022-10-19T10:55:10.756Z,63.10
2022-10-19T10:56:10.747Z,64.73
2022-10-19T10:57:10.803Z,65.23
2022-10-19T10:58:10.734Z,64.42
2022-10-19T10:59:10.728Z,64.62
2022-10-19T11:00:10.723Z,64.62
2022-10-19T11:01:10.722Z,64.90
2022-10-19T11:02:10.877Z,63.37
2022-10-19T11:03:10.704Z,65.20
2022-10-19T11:04:10.702Z,64.67
2022-10-19T11:05:10.688Z,65.17
2022-10-19T11:06:10.688Z,64.46
2022-10-19T11:07:17.841Z,64.46
2022-10-19T11:09:03.833Z,66.16
2022-10-19T11:10:03.770Z,64.30
2022-10-19T11:12:07.763Z,63.18
2022-10-19T11:13:07.752Z,63.21
2022-10-19T11:15:00.849Z,64.84
2022-10-19T11:16:00.833Z,63.92
2022-10-19T11:17:53.747Z,64.33
2022-10-19T11:18:53.732Z,64.53
2022-10-19T11:20:57.778Z,64.67
2022-10-19T11:21:57.731Z,64.67
2022-10-19T11:24:01.716Z,63.24
2022-10-19T11:25:01.701Z,64.06
2022-10-19T11:26:54.799Z,64.46
2022-10-19T11:27:54.791Z,64.36
2022-10-19T11:29:58.788Z,64.67
2022-10-19T11:30:58.780Z,64.06
2022-10-19T11:33:02.759Z,64.73
2022-10-19T11:34:02.778Z,64.84
2022-10-19T11:35:55.846Z,63.32
2022-10-19T11:36:55.835Z,63.62
2022-10-19T11:38:48.955Z,64.03
2022-10-19T11:39:48.927Z,64.94
2022-10-19T11:41:52.935Z,64.50
2022-10-19T11:42:52.924Z,65.55
2022-10-19T11:44:56.919Z,64.64
2022-10-19T11:45:56.906Z,65.07
2022-10-19T11:47:49.818Z,65.27
2022-10-19T11:48:54.101Z,64.76
2022-10-19T11:50:58.405Z,62.97
2022-10-19T11:51:53.770Z,65.10
2022-10-19T11:53:57.749Z,64.97
2022-10-19T11:54:57.737Z,65.78
2022-10-19T11:57:03.320Z,65.45
2022-10-19T11:57:50.822Z,66.05
2022-10-19T12:00:00.242Z,65.65
2022-10-19T12:00:54.811Z,65.65
2022-10-19T12:03:02.843Z,66.49
2022-10-19T12:03:58.784Z,66.02
2022-10-19T12:05:51.877Z,66.60
2022-10-19T12:06:51.867Z,66.60
2022-10-19T12:08:45.005Z,66.42
2022-10-19T12:09:44.955Z,66.52
2022-10-19T12:11:38.065Z,65.99
2022-10-19T12:12:38.180Z,65.27
2022-10-19T12:14:42.058Z,66.08
2022-10-19T12:15:42.044Z,66.80
2022-10-19T12:17:35.214Z,65.04
2022-10-19T12:18:34.958Z,64.84
2022-10-19T12:20:28.077Z,64.23
2022-10-19T12:21:28.069Z,65.24
2022-10-19T12:23:21.174Z,63.11
2022-10-19T12:24:21.162Z,63.01
2022-10-19T12:26:25.154Z,62.81
2022-10-19T12:27:25.136Z,62.60
2022-10-19T12:29:29.142Z,64.43
2022-10-19T12:30:29.125Z,64.76
2022-10-19T12:32:33.112Z,64.36
2022-10-19T12:33:33.101Z,65.17
2022-10-19T12:35:37.079Z,64.36
2022-10-19T12:36:37.069Z,65.07
2022-10-19T12:37:37.331Z,65.88
2022-10-19T12:38:38.754Z,66.39
2022-10-19T12:39:37.051Z,65.27
2022-10-19T12:40:37.047Z,65.37
2022-10-19T12:41:37.040Z,65.58
2022-10-19T12:42:37.033Z,66.32
2022-10-19T12:43:37.029Z,66.22
2022-10-19T12:44:37.023Z,67.03
2022-10-19T12:45:37.017Z,66.42
2022-10-19T12:46:37.011Z,66.42
2022-10-19T12:47:37.290Z,66.52
2022-10-19T12:48:37.000Z,66.32
2022-10-19T12:49:36.994Z,66.72
2022-10-19T12:50:38.486Z,66.02
2022-10-19T12:51:36.983Z,66.42
2022-10-19T12:52:37.257Z,66.72
2022-10-19T12:53:36.972Z,66.72
2022-10-19T12:54:36.965Z,67.20
2022-10-19T12:55:36.958Z,67.50
2022-10-19T12:56:36.953Z,66.29
2022-10-19T12:57:37.239Z,65.99
2022-10-19T12:58:36.940Z,65.68
2022-10-19T12:59:36.934Z,65.04
2022-10-19T13:00:36.940Z,65.14
2022-10-19T13:01:36.938Z,65.75
2022-10-19T13:02:36.926Z,64.94
2022-10-19T13:03:36.910Z,65.55
2022-10-19T13:04:36.904Z,63.82
2022-10-19T13:05:36.899Z,63.59
2022-10-19T13:06:36.893Z,63.62
2022-10-19T13:07:37.356Z,65.14
2022-10-19T13:08:36.927Z,63.32
2022-10-19T13:09:36.879Z,63.01
2022-10-19T13:10:36.868Z,63.01
2022-10-19T13:11:36.879Z,64.13
2022-10-19T13:12:37.153Z,63.85
2022-10-19T13:13:36.863Z,64.97
2022-10-19T13:14:36.848Z,64.56
2022-10-19T13:15:36.843Z,65.27
2022-10-19T13:16:36.837Z,65.37
2022-10-19T13:17:36.844Z,65.51
2022-10-19T13:18:36.826Z,65.51
2022-10-19T13:19:36.824Z,66.02
2022-10-19T13:20:36.835Z,66.15
2022-10-19T13:21:36.809Z,66.86
2022-10-19T13:22:37.264Z,67.19
2022-10-19T13:23:36.793Z,67.30
2022-10-19T13:24:36.899Z,66.89
2022-10-19T13:25:36.784Z,67.19
2022-10-19T13:26:36.776Z,67.19
2022-10-19T13:27:37.104Z,67.43
2022-10-19T13:28:36.765Z,68.24
2022-10-19T13:29:36.808Z,68.44
2022-10-19T13:30:36.752Z,69.36
2022-10-19T13:31:36.745Z,68.44
2022-10-19T13:32:37.354Z,69.70
2022-10-19T13:33:36.733Z,69.80
2022-10-19T13:34:36.792Z,70.72
2022-10-19T13:35:36.724Z,70.72
2022-10-19T13:36:36.716Z,70.82
2022-10-19T13:37:36.710Z,70.51
2022-10-19T13:39:36.699Z,70.41
2022-10-19T13:40:36.691Z,70.62